Details From LGAV - Athens Intl Airport Elefterios Venizel
To TNCM - St Maarten - Princess Juliana Intl
Flight Number -
Tags Decoded
Created
Modified
Stats Distance 4,628 nm / 8,571 km
Max Altitude 0 ft / 0 m
Waypoints 9
Social Downloads 3
Likes 0
Share VATSIM

Download

Looking for another format? Having issues loading an existing format? Contact us
Advertisement - Login to hide

Notes

Decoded

Route

LGAV DINOB VENTO ALEDI BOGAS LAR PJM90 PJM09 TNCM

ID Type Via Altitude Latitude Longitude Leg Dist Tot Dist Heading (true) Name
O LGAV APT - 0 ft / 0 m 37.92101˚ 23.91920˚ - 0 nm - -
DINOB FIX - 0 ft / 0 m 38.72417˚ 19.00000˚ 236 nm 236 nm 283° / 280° -
VENTO FIX - 0 ft / 0 m 39.30417˚ 14.26694˚ 223 nm 460 nm 280° / 277° -
ALEDI FIX - 0 ft / 0 m 39.61028˚ 9.99389˚ 198 nm 659 nm 277° / 274° -
BOGAS FIX - 0 ft / 0 m 39.50610˚ -3.82465˚ 639 nm 1298 nm 274° / 265° -
LAR NDB - 0 ft / 0 m 38.99433˚ -9.04039˚ 244 nm 1542 nm 264° / 261° ARRUDA NDB
PJM90 FIX - 0 ft / 0 m 18.12665˚ -63.24579˚ 3069 nm 4612 nm 262° / 234° -
PJM09 FIX - 0 ft / 0 m 18.02230˚ -63.27493˚ 6 nm 4619 nm 195° / 195° -
O TNCM APT - 0 ft / 0 m 18.03937˚ -63.11961˚ 8 nm 4628 nm 83° / 83° -

Altitude Profile

Advertisement - Login to hide

Weather


0- 5 10 15 20 25 30 35+ Temperature / ° C

Clouds and Precipitation
Forecast for 2018-05-25 12:00 UTC. Updated 2 hours ago

Ground ~20,000 ft ~40,000 ft Winds

LGAV

Details ICAO LGAV (ATH)
Name Athens Intl Airport Elefterios Venizel
Region Greece
Timezone Europe/Athens (UTC+3.0)
Stats Elevation 308 ft / 94 m (AMSL)
Location 37.936357° 23.944470°
Runways 2
Magnetic Variation 4.527° E

METAR

LGAV 251250Z 06020KT 9999 FEW025 SCT040 27/12 Q1011 NOSIG

Decode

TAF

TAF TAF LGAV 251100Z 2512/2612 02018G28KT 9999 FEW025 SCT035 BECMG 2606/2608 02025G35KT FEW020 SCT060

Decode

Departure Runways

ID Width Length Bearing (true) Bearing (mag) Surface Threshold Offset Overrun Length
03L 148 ft / 45 m 12,474 ft / 3,802 m 36.51° 31.98° Asphalt 984 ft / 300 m 393 ft / 120 m
03R 148 ft / 45 m 13,131 ft / 4,002 m 36.52° 31.99° Asphalt 984 ft / 300 m 393 ft / 120 m
21L 148 ft / 45 m 13,131 ft / 4,002 m 216.54° 212.01° Asphalt 984 ft / 300 m 393 ft / 120 m
21R 148 ft / 45 m 12,474 ft / 3,802 m 216.53° 212.00° Asphalt 984 ft / 300 m 393 ft / 120 m

TNCM

Details ICAO TNCM (SXM)
Name St Maarten - Princess Juliana Intl
Region Caribbean Netherlands, Aruba, Curaçao, Sint Maarten
Timezone Unknown (UTC+0.0)
Stats Elevation 12 ft / 4 m (AMSL)
Location 18.040889° -63.108974°
Runways 1
Magnetic Variation 14.337° W

METAR

TNCM 251300Z 09012KT 060V130 9999 FEW020 28/21 Q1018 A3007 NOSIG

Decode

TAF

TAF TNCM 251122Z 2512/2612 09009KT P6SM SCT018

Decode

Destination Runways

ID Width Length Bearing (true) Bearing (mag) Surface Threshold Offset Overrun Length
10 148 ft / 45 m 7,464 ft / 2,275 m 81.43° 95.77° Asphalt 0 ft / 0 m 151 ft / 46 m
28 148 ft / 45 m 7,464 ft / 2,275 m 261.44° 275.78° Asphalt 397 ft / 121 m 0 ft / 0 m

Popular Alternatives